createdAt,value
2022-08-31T00:01:36.252Z,15.99
2022-08-31T00:04:06.590Z,15.97
2022-08-31T00:06:08.327Z,15.95
2022-08-31T00:08:10.118Z,15.93
2022-08-31T00:10:14.863Z,15.91
2022-08-31T00:12:16.886Z,15.89
2022-08-31T00:14:18.446Z,15.86
2022-08-31T00:16:20.157Z,15.83
2022-08-31T00:18:22.871Z,15.80
2022-08-31T00:20:33.103Z,15.76
2022-08-31T00:22:36.293Z,15.75
2022-08-31T00:24:37.953Z,15.74
2022-08-31T00:26:40.498Z,15.72
2022-08-31T00:28:42.410Z,15.70
2022-08-31T00:30:46.864Z,15.67
2022-08-31T00:32:48.529Z,15.63
2022-08-31T00:34:50.337Z,15.60
2022-08-31T00:36:53.767Z,15.59
2022-08-31T00:38:56.958Z,15.56
2022-08-31T00:40:59.214Z,15.55
2022-08-31T00:43:01.402Z,15.55
2022-08-31T00:45:04.023Z,15.54
2022-08-31T00:47:06.055Z,15.53
2022-08-31T00:49:08.919Z,15.50
2022-08-31T00:51:12.507Z,15.48
2022-08-31T00:53:20.258Z,15.47
2022-08-31T00:55:46.293Z,15.46
2022-08-31T00:57:49.697Z,15.44
2022-08-31T00:59:53.594Z,15.42
2022-08-31T01:01:55.731Z,15.39
2022-08-31T01:03:58.523Z,15.36
2022-08-31T01:06:00.312Z,15.35
2022-08-31T01:08:03.504Z,15.35
2022-08-31T01:10:05.714Z,15.33
2022-08-31T01:12:08.474Z,15.30
2022-08-31T01:14:10.998Z,15.26
2022-08-31T01:16:20.063Z,15.23
2022-08-31T01:18:23.843Z,15.21
2022-08-31T01:20:49.145Z,15.19
2022-08-31T01:23:31.842Z,15.17
2022-08-31T01:25:35.625Z,15.13
2022-08-31T01:27:37.873Z,15.11
2022-08-31T01:29:39.958Z,15.09
2022-08-31T01:31:44.609Z,15.08
2022-08-31T01:33:46.458Z,15.05
2022-08-31T01:35:48.154Z,15.02
2022-08-31T01:37:50.177Z,14.98
2022-08-31T01:39:54.566Z,14.95
2022-08-31T01:41:56.444Z,14.94
2022-08-31T01:44:00.502Z,14.92
2022-08-31T01:46:04.491Z,14.90
2022-08-31T01:48:18.086Z,14.86
2022-08-31T01:50:20.188Z,14.82
2022-08-31T01:52:21.792Z,14.80
2022-08-31T01:54:39.452Z,14.80
2022-08-31T01:56:44.672Z,14.79
2022-08-31T01:58:48.476Z,14.77
2022-08-31T02:00:50.620Z,14.76
2022-08-31T02:02:53.126Z,14.77
2022-08-31T02:04:54.798Z,14.76
2022-08-31T02:06:58.565Z,14.73
2022-08-31T02:09:05.122Z,14.71
2022-08-31T02:11:07.315Z,14.70
2022-08-31T02:13:08.968Z,14.71
2022-08-31T02:15:11.019Z,14.69
2022-08-31T02:17:12.593Z,14.66
2022-08-31T02:19:14.592Z,14.64
2022-08-31T02:21:16.356Z,14.64
2022-08-31T02:23:18.191Z,14.62
2022-08-31T02:25:20.137Z,14.60
2022-08-31T02:27:21.877Z,14.57
2022-08-31T02:29:23.583Z,14.54
2022-08-31T02:31:25.438Z,14.53
2022-08-31T02:33:45.481Z,14.49
2022-08-31T02:35:53.507Z,14.46
2022-08-31T02:37:55.644Z,14.44
2022-08-31T02:39:57.269Z,14.44
2022-08-31T02:41:59.514Z,14.43
2022-08-31T02:44:01.291Z,14.40
2022-08-31T02:46:03.087Z,14.38
2022-08-31T02:48:06.420Z,14.35
2022-08-31T02:50:08.977Z,14.34
2022-08-31T02:52:10.664Z,14.33
2022-08-31T02:54:12.485Z,14.31
2022-08-31T02:56:14.333Z,14.30
2022-08-31T02:58:19.588Z,14.28
2022-08-31T03:00:24.459Z,14.27
2022-08-31T03:02:32.248Z,14.27
2022-08-31T03:04:43.707Z,14.25
2022-08-31T03:06:45.357Z,14.22
2022-08-31T03:08:47.365Z,14.21
2022-08-31T03:10:49.109Z,14.19
2022-08-31T03:12:52.977Z,14.17
2022-08-31T03:14:54.683Z,14.16
2022-08-31T03:16:56.481Z,14.13
2022-08-31T03:18:58.359Z,14.10
2022-08-31T03:21:00.078Z,14.08
2022-08-31T03:23:02.125Z,14.07
2022-08-31T03:25:07.351Z,14.07
2022-08-31T03:27:42.469Z,14.06
2022-08-31T03:29:44.345Z,14.04
2022-08-31T03:31:52.421Z,14.00
2022-08-31T03:33:54.124Z,13.97
2022-08-31T03:35:55.765Z,13.97
2022-08-31T03:37:57.550Z,13.97
2022-08-31T03:39:59.327Z,13.96
2022-08-31T03:42:01.117Z,13.95
2022-08-31T03:44:03.302Z,13.93
2022-08-31T03:46:11.875Z,13.90
2022-08-31T03:48:13.999Z,13.87
2022-08-31T03:50:16.349Z,13.86
2022-08-31T03:52:18.514Z,13.82
2022-08-31T03:54:20.172Z,13.79
2022-08-31T03:56:22.121Z,13.77
2022-08-31T03:58:23.778Z,13.75
2022-08-31T04:00:26.491Z,13.74
2022-08-31T04:02:35.449Z,13.73
2022-08-31T04:04:39.262Z,13.69
2022-08-31T04:06:41.858Z,13.66
2022-08-31T04:08:43.553Z,13.64
2022-08-31T04:10:47.903Z,13.63
2022-08-31T04:12:50.066Z,13.60
2022-08-31T04:14:51.736Z,13.58
2022-08-31T04:16:53.515Z,13.56
2022-08-31T04:18:55.173Z,13.53
2022-08-31T04:20:56.898Z,13.51
2022-08-31T04:23:06.680Z,13.50
2022-08-31T04:25:10.456Z,13.50
2022-08-31T04:27:18.323Z,13.48
2022-08-31T04:29:20.017Z,13.45
2022-08-31T04:31:25.122Z,13.41
2022-08-31T04:33:26.901Z,13.39
2022-08-31T04:35:28.562Z,13.38
2022-08-31T04:37:31.470Z,13.38
2022-08-31T04:39:33.981Z,13.36
2022-08-31T04:41:37.776Z,13.34
2022-08-31T04:43:43.139Z,13.32
2022-08-31T04:45:46.082Z,13.31
2022-08-31T04:47:49.369Z,13.29
2022-08-31T04:49:51.008Z,13.29
2022-08-31T04:51:52.691Z,13.26
2022-08-31T04:53:55.467Z,13.24
2022-08-31T04:55:57.425Z,13.24
2022-08-31T04:58:02.230Z,13.25
2022-08-31T05:00:27.807Z,13.25
2022-08-31T05:02:33.373Z,13.23
2022-08-31T05:04:35.183Z,13.20
2022-08-31T05:06:40.281Z,13.18
2022-08-31T05:08:43.302Z,13.16
2022-08-31T05:10:45.481Z,13.16
2022-08-31T05:12:47.225Z,13.16
2022-08-31T05:14:49.330Z,13.14
2022-08-31T05:16:51.496Z,13.13
2022-08-31T05:18:53.711Z,13.11
2022-08-31T05:20:55.314Z,13.09
2022-08-31T05:22:56.974Z,13.09
2022-08-31T05:24:58.886Z,13.10
2022-08-31T05:27:00.529Z,13.12
2022-08-31T05:29:06.318Z,13.13
2022-08-31T05:31:08.786Z,13.11
2022-08-31T05:33:12.527Z,13.11
2022-08-31T05:35:16.289Z,13.12
2022-08-31T05:37:18.001Z,13.12
2022-08-31T05:39:20.881Z,13.12
2022-08-31T05:41:23.350Z,13.11
2022-08-31T05:43:25.308Z,13.11
2022-08-31T05:45:27.063Z,13.11
2022-08-31T05:47:28.855Z,13.12
2022-08-31T05:49:30.545Z,13.14
2022-08-31T05:51:38.437Z,13.15
2022-08-31T05:53:40.758Z,13.15
2022-08-31T05:55:42.326Z,13.16
2022-08-31T05:57:43.991Z,13.18
2022-08-31T05:59:45.650Z,13.18
2022-08-31T06:01:47.459Z,13.21
2022-08-31T06:03:49.862Z,13.23
2022-08-31T06:05:52.542Z,13.25
2022-08-31T06:07:56.451Z,13.26
2022-08-31T06:10:09.294Z,13.30
2022-08-31T06:12:10.957Z,13.34
2022-08-31T06:14:13.308Z,13.37
2022-08-31T06:16:15.169Z,13.39
2022-08-31T06:18:17.110Z,13.41
2022-08-31T06:20:18.823Z,13.45
2022-08-31T06:22:20.519Z,13.51
2022-08-31T06:24:22.583Z,13.56
2022-08-31T06:26:25.651Z,13.61
2022-08-31T06:28:27.518Z,13.66
2022-08-31T06:30:29.204Z,13.72
2022-08-31T06:32:32.712Z,13.78
2022-08-31T06:34:35.975Z,13.83
2022-08-31T06:36:37.801Z,13.88
2022-08-31T06:38:40.460Z,13.94
2022-08-31T06:40:42.117Z,13.99
2022-08-31T06:42:43.862Z,14.04
2022-08-31T06:44:45.794Z,14.09
2022-08-31T06:46:47.781Z,14.12
2022-08-31T06:48:56.078Z,14.16
2022-08-31T06:50:58.766Z,14.24
2022-08-31T06:53:00.506Z,14.32
2022-08-31T06:55:14.378Z,14.39
2022-08-31T06:57:16.747Z,14.44
2022-08-31T06:59:18.386Z,14.50
2022-08-31T07:01:32.692Z,14.57
2022-08-31T07:03:44.207Z,14.63
2022-08-31T07:05:45.865Z,14.69
2022-08-31T07:07:47.549Z,14.75
2022-08-31T07:09:49.355Z,14.82
2022-08-31T07:11:52.293Z,14.88
2022-08-31T07:13:55.287Z,14.96
2022-08-31T07:16:05.298Z,15.05
2022-08-31T07:18:12.092Z,15.13
2022-08-31T07:20:24.543Z,15.19
2022-08-31T07:22:26.262Z,15.28
2022-08-31T07:24:30.757Z,15.37
2022-08-31T07:26:36.507Z,15.44
2022-08-31T07:28:39.773Z,15.51
2022-08-31T07:30:42.772Z,15.57
2022-08-31T07:32:44.700Z,15.63
2022-08-31T07:34:46.374Z,15.71
2022-08-31T07:37:26.538Z,15.80
2022-08-31T07:39:50.504Z,15.90
2022-08-31T07:42:10.472Z,16.00
2022-08-31T07:44:13.955Z,16.09
2022-08-31T07:46:15.817Z,16.15
2022-08-31T07:48:18.966Z,16.22
2022-08-31T07:50:22.440Z,16.32
2022-08-31T07:52:27.621Z,16.39
2022-08-31T07:54:29.352Z,16.43
2022-08-31T07:56:35.039Z,16.43
2022-08-31T07:58:40.250Z,16.45
2022-08-31T08:00:43.263Z,16.52
2022-08-31T08:02:52.831Z,16.61
2022-08-31T08:04:55.070Z,16.66
2022-08-31T08:06:58.486Z,16.72
2022-08-31T08:09:24.200Z,16.80
2022-08-31T08:11:26.774Z,16.92
2022-08-31T08:13:28.780Z,17.03
2022-08-31T08:15:33.080Z,17.11
2022-08-31T08:17:37.322Z,17.18
2022-08-31T08:19:38.958Z,17.22
2022-08-31T08:21:40.758Z,17.28
2022-08-31T08:23:43.603Z,17.32
2022-08-31T08:25:47.384Z,17.39
2022-08-31T08:28:38.730Z,17.46
2022-08-31T08:30:44.627Z,17.51
2022-08-31T08:32:48.276Z,17.61
2022-08-31T08:34:49.968Z,17.66
2022-08-31T08:36:51.881Z,17.70
2022-08-31T08:38:54.555Z,17.75
2022-08-31T08:40:58.008Z,17.85
2022-08-31T08:43:00.062Z,17.94
2022-08-31T08:45:01.954Z,17.98
2022-08-31T08:47:06.348Z,17.99
2022-08-31T08:49:18.382Z,17.99
2022-08-31T08:51:25.117Z,18.04
2022-08-31T08:53:32.204Z,18.07
2022-08-31T08:55:37.031Z,18.14
2022-08-31T08:57:43.436Z,18.23
2022-08-31T08:59:47.026Z,18.30
2022-08-31T09:01:51.867Z,18.37
2022-08-31T09:04:02.674Z,18.43
2022-08-31T09:06:12.739Z,18.46
2022-08-31T09:09:18.173Z,18.56
2022-08-31T09:11:46.595Z,18.77
2022-08-31T09:13:58.163Z,18.90
2022-08-31T09:16:40.982Z,18.97
2022-08-31T09:19:00.177Z,19.06
2022-08-31T09:21:21.555Z,19.10
2022-08-31T09:23:24.202Z,19.13
2022-08-31T09:25:47.780Z,19.20
2022-08-31T09:27:58.344Z,19.25
2022-08-31T09:30:01.794Z,19.28
2022-08-31T09:32:09.871Z,19.37
2022-08-31T09:34:28.522Z,19.49
2022-08-31T09:36:41.120Z,19.60
2022-08-31T09:38:46.979Z,19.67
2022-08-31T09:40:49.834Z,19.78
2022-08-31T09:43:06.619Z,19.88
2022-08-31T09:45:14.115Z,19.95
2022-08-31T09:47:44.587Z,19.97
2022-08-31T09:49:55.456Z,20.00
2022-08-31T09:52:43.166Z,20.09
2022-08-31T09:55:13.740Z,20.22
2022-08-31T09:57:15.443Z,20.28
2022-08-31T09:59:34.075Z,20.33
2022-08-31T10:01:44.497Z,20.51
2022-08-31T10:03:47.846Z,20.97
2022-08-31T10:05:51.939Z,21.51
2022-08-31T10:08:04.398Z,21.95
2022-08-31T10:10:18.795Z,22.23
2022-08-31T10:12:52.057Z,22.58
2022-08-31T10:15:02.534Z,22.79
2022-08-31T10:17:26.201Z,22.87
2022-08-31T10:19:53.417Z,23.09
2022-08-31T10:22:01.327Z,23.32
2022-08-31T10:24:10.298Z,23.62
2022-08-31T10:26:17.227Z,23.74
2022-08-31T10:28:37.314Z,23.89
2022-08-31T10:30:45.435Z,24.07
2022-08-31T10:33:01.494Z,23.92
2022-08-31T10:35:11.354Z,23.85
2022-08-31T10:37:19.369Z,24.00
2022-08-31T10:39:38.717Z,24.09
2022-08-31T10:41:44.285Z,24.47
2022-08-31T10:44:27.564Z,24.78
2022-08-31T10:46:33.207Z,24.97
2022-08-31T10:48:37.288Z,24.91
2022-08-31T10:51:05.702Z,24.81
2022-08-31T10:53:16.461Z,24.45
2022-08-31T10:55:33.101Z,24.13
2022-08-31T10:57:46.152Z,23.77
2022-08-31T10:59:56.158Z,23.40
2022-08-31T11:02:25.349Z,23.38
2022-08-31T11:04:52.403Z,23.91
2022-08-31T11:07:15.839Z,24.26
2022-08-31T11:09:32.773Z,24.45
2022-08-31T11:11:58.152Z,24.29
2022-08-31T11:14:36.809Z,23.96
2022-08-31T11:16:38.806Z,23.67
2022-08-31T11:19:11.071Z,23.48
2022-08-31T11:21:21.588Z,23.37
2022-08-31T11:23:34.887Z,23.35
2022-08-31T11:26:24.158Z,23.65
2022-08-31T11:28:37.124Z,23.90
2022-08-31T11:30:45.789Z,23.96
2022-08-31T11:32:55.429Z,24.08
2022-08-31T11:34:58.993Z,24.56
2022-08-31T11:37:03.960Z,25.12
2022-08-31T11:39:05.601Z,25.30
2022-08-31T11:41:10.955Z,25.19
2022-08-31T11:43:33.850Z,24.86
2022-08-31T11:45:37.711Z,24.47
2022-08-31T11:47:43.482Z,24.14
2022-08-31T11:49:50.388Z,23.92
2022-08-31T11:51:55.740Z,23.97
2022-08-31T11:53:57.401Z,24.24
2022-08-31T11:56:04.112Z,24.09
2022-08-31T11:58:11.260Z,23.89
2022-08-31T12:00:48.791Z,23.80
2022-08-31T12:03:09.603Z,24.07
2022-08-31T12:05:11.879Z,24.62
2022-08-31T12:07:15.626Z,24.87
2022-08-31T12:09:23.281Z,25.20
2022-08-31T12:11:37.207Z,25.49
2022-08-31T12:13:49.001Z,25.47
2022-08-31T12:16:09.767Z,25.36
2022-08-31T12:18:31.161Z,25.29
2022-08-31T12:21:11.493Z,25.36
2022-08-31T12:23:38.628Z,26.02
2022-08-31T12:26:18.106Z,26.70
2022-08-31T12:28:30.144Z,27.17
2022-08-31T12:30:31.811Z,27.48
2022-08-31T12:32:38.588Z,27.71
2022-08-31T12:35:22.004Z,27.74
2022-08-31T12:37:35.163Z,27.37
2022-08-31T12:39:36.854Z,27.50
2022-08-31T12:41:43.787Z,27.95
2022-08-31T12:43:52.622Z,28.37
2022-08-31T12:46:18.190Z,28.16
2022-08-31T12:48:38.217Z,27.75
2022-08-31T12:50:45.491Z,27.76
2022-08-31T12:53:18.107Z,27.77
2022-08-31T12:55:40.642Z,27.59
2022-08-31T12:57:51.415Z,27.74
2022-08-31T13:00:11.715Z,28.09
2022-08-31T13:02:16.603Z,28.04
2022-08-31T13:04:20.479Z,27.81
2022-08-31T13:06:24.949Z,27.70
2022-08-31T13:08:28.624Z,27.66
2022-08-31T13:10:36.484Z,27.32
2022-08-31T13:12:38.529Z,26.82
2022-08-31T13:14:42.625Z,26.35
2022-08-31T13:16:47.901Z,26.05
2022-08-31T13:18:59.238Z,25.78
2022-08-31T13:21:05.509Z,25.66
2022-08-31T13:23:10.257Z,25.60
2022-08-31T13:25:25.693Z,25.51
2022-08-31T13:27:29.848Z,25.97
2022-08-31T13:29:41.269Z,26.30
2022-08-31T13:31:51.752Z,26.52
2022-08-31T13:33:56.936Z,26.76
2022-08-31T13:36:05.472Z,26.73
2022-08-31T13:38:09.038Z,26.45
2022-08-31T13:40:13.524Z,26.26
2022-08-31T13:42:41.332Z,26.09
2022-08-31T13:44:44.267Z,25.81
2022-08-31T13:47:00.254Z,25.63
2022-08-31T13:49:04.678Z,25.60
2022-08-31T13:51:17.370Z,25.89
2022-08-31T13:53:46.765Z,26.26
2022-08-31T13:55:49.646Z,26.35
2022-08-31T13:58:06.508Z,26.34
2022-08-31T14:00:27.335Z,26.57
2022-08-31T14:02:36.423Z,27.08
2022-08-31T14:04:49.666Z,27.35
2022-08-31T14:06:52.285Z,27.35
2022-08-31T14:09:17.074Z,27.19
2022-08-31T14:11:20.555Z,26.88
2022-08-31T14:13:27.046Z,26.53
2022-08-31T14:15:41.948Z,26.08
2022-08-31T14:18:23.816Z,25.68
2022-08-31T14:20:36.879Z,25.25
2022-08-31T14:22:45.673Z,24.93
2022-08-31T14:24:47.308Z,24.74
2022-08-31T14:26:48.924Z,24.61
2022-08-31T14:28:53.546Z,24.54
2022-08-31T14:31:47.112Z,24.64
2022-08-31T14:34:03.802Z,24.77
2022-08-31T14:36:14.223Z,25.24
2022-08-31T14:38:15.856Z,25.64
2022-08-31T14:40:32.711Z,26.02
2022-08-31T14:42:37.152Z,26.59
2022-08-31T14:44:42.624Z,26.98
2022-08-31T14:46:44.513Z,27.09
2022-08-31T14:48:46.146Z,27.02
2022-08-31T14:50:47.763Z,26.74
2022-08-31T14:52:55.302Z,26.46
2022-08-31T14:55:00.531Z,26.12
2022-08-31T14:57:12.562Z,25.76
2022-08-31T14:59:17.326Z,25.36
2022-08-31T15:01:19.551Z,25.12
2022-08-31T15:03:24.347Z,24.99
2022-08-31T15:05:26.749Z,24.85
2022-08-31T15:07:32.109Z,24.72
2022-08-31T15:09:35.308Z,24.58
2022-08-31T15:11:39.925Z,24.42
2022-08-31T15:13:42.999Z,24.30
2022-08-31T15:15:47.566Z,24.26
2022-08-31T15:17:52.079Z,24.27
2022-08-31T15:19:55.371Z,24.46
2022-08-31T15:22:02.982Z,24.63
2022-08-31T15:24:05.045Z,24.67
2022-08-31T15:26:08.004Z,24.75
2022-08-31T15:28:09.869Z,25.00
2022-08-31T15:30:14.879Z,25.19
2022-08-31T15:32:17.540Z,25.29
2022-08-31T15:34:31.039Z,25.26
2022-08-31T15:36:34.012Z,25.15
2022-08-31T15:38:39.027Z,25.06
2022-08-31T15:40:41.156Z,24.93
2022-08-31T15:42:43.654Z,24.73
2022-08-31T15:44:45.939Z,24.53
2022-08-31T15:47:06.601Z,24.49
2022-08-31T15:49:10.052Z,24.49
2022-08-31T15:51:30.262Z,24.45
2022-08-31T15:53:35.388Z,24.47
2022-08-31T15:55:40.665Z,24.43
2022-08-31T15:57:43.647Z,24.41
2022-08-31T15:59:45.847Z,24.36
2022-08-31T16:01:47.604Z,24.38
2022-08-31T16:03:53.288Z,24.52
2022-08-31T16:05:56.384Z,24.56
2022-08-31T16:07:58.698Z,24.61
2022-08-31T16:10:01.702Z,24.74
2022-08-31T16:12:03.902Z,24.80
2022-08-31T16:14:10.942Z,25.26
2022-08-31T16:16:12.664Z,25.88
2022-08-31T16:18:14.583Z,26.45
2022-08-31T16:20:16.454Z,27.13
2022-08-31T16:22:18.443Z,27.67
2022-08-31T16:24:23.116Z,28.09
2022-08-31T16:26:26.134Z,28.46
2022-08-31T16:28:28.402Z,28.90
2022-08-31T16:30:32.539Z,29.33
2022-08-31T16:32:35.993Z,29.81
2022-08-31T16:34:39.354Z,30.19
2022-08-31T16:36:42.214Z,30.32
2022-08-31T16:38:45.363Z,30.62
2022-08-31T16:40:47.051Z,30.71
2022-08-31T16:42:48.972Z,30.61
2022-08-31T16:44:51.826Z,30.65
2022-08-31T16:46:53.538Z,30.56
2022-08-31T16:49:14.054Z,30.24
2022-08-31T16:51:17.168Z,30.09
2022-08-31T16:53:18.832Z,30.14
2022-08-31T16:55:23.308Z,30.28
2022-08-31T16:57:28.378Z,30.46
2022-08-31T16:59:30.943Z,30.63
2022-08-31T17:01:35.479Z,30.75
2022-08-31T17:03:37.738Z,30.81
2022-08-31T17:05:40.999Z,30.79
2022-08-31T17:07:42.945Z,30.72
2022-08-31T17:09:46.441Z,30.40
2022-08-31T17:11:57.645Z,29.74
2022-08-31T17:14:11.802Z,29.13
2022-08-31T17:16:21.323Z,28.75
2022-08-31T17:18:25.071Z,28.32
2022-08-31T17:20:31.174Z,27.92
2022-08-31T17:22:33.772Z,27.45
2022-08-31T17:24:58.742Z,27.00
2022-08-31T17:27:01.862Z,26.57
2022-08-31T17:29:05.817Z,26.39
2022-08-31T17:31:08.216Z,26.13
2022-08-31T17:33:13.143Z,25.95
2022-08-31T17:35:19.147Z,26.03
2022-08-31T17:37:34.485Z,26.11
2022-08-31T17:39:36.142Z,26.08
2022-08-31T17:41:40.041Z,25.96
2022-08-31T17:43:42.389Z,26.03
2022-08-31T17:45:44.258Z,26.10
2022-08-31T17:47:46.186Z,25.98
2022-08-31T17:49:50.839Z,25.77
2022-08-31T17:51:53.829Z,25.52
2022-08-31T17:54:06.048Z,25.26
2022-08-31T17:56:08.802Z,25.01
2022-08-31T17:58:10.499Z,24.76
2022-08-31T18:00:14.832Z,24.53
2022-08-31T18:02:26.537Z,24.39
2022-08-31T18:04:30.357Z,24.18
2022-08-31T18:06:43.857Z,23.93
2022-08-31T18:08:45.635Z,23.63
2022-08-31T18:10:52.225Z,23.36
2022-08-31T18:12:54.147Z,23.07
2022-08-31T18:14:59.285Z,22.83
2022-08-31T18:17:02.511Z,22.61
2022-08-31T18:19:04.304Z,22.41
2022-08-31T18:21:07.221Z,22.23
2022-08-31T18:23:10.043Z,22.05
2022-08-31T18:25:13.160Z,21.85
2022-08-31T18:27:20.827Z,21.69
2022-08-31T18:29:24.871Z,21.58
2022-08-31T18:31:32.404Z,21.48
2022-08-31T18:33:37.213Z,21.36
2022-08-31T18:35:46.227Z,21.24
2022-08-31T18:37:47.909Z,21.11
2022-08-31T18:40:08.658Z,21.02
2022-08-31T18:42:32.290Z,20.94
2022-08-31T18:44:54.187Z,20.84
2022-08-31T18:47:00.376Z,20.72
2022-08-31T18:49:12.095Z,20.62
2022-08-31T18:51:19.098Z,20.52
2022-08-31T18:53:27.757Z,20.42
2022-08-31T18:55:38.025Z,20.35
2022-08-31T18:57:48.856Z,20.27
2022-08-31T18:59:51.406Z,20.20
2022-08-31T19:01:53.399Z,20.13
2022-08-31T19:03:57.819Z,20.05
2022-08-31T19:05:59.445Z,19.96
2022-08-31T19:08:01.331Z,19.87
2022-08-31T19:10:03.290Z,19.77
2022-08-31T19:12:06.095Z,19.68
2022-08-31T19:14:09.703Z,19.59
2022-08-31T19:16:17.439Z,19.50
2022-08-31T19:18:19.143Z,19.42
2022-08-31T19:20:20.835Z,19.34
2022-08-31T19:22:22.627Z,19.24
2022-08-31T19:24:24.491Z,19.14
2022-08-31T19:26:38.667Z,19.06
2022-08-31T19:28:41.206Z,18.98
2022-08-31T19:30:48.689Z,18.90
2022-08-31T19:32:51.247Z,18.80
2022-08-31T19:34:53.162Z,18.72
2022-08-31T19:36:56.486Z,18.64
2022-08-31T19:38:59.670Z,18.55
2022-08-31T19:41:15.545Z,18.47
2022-08-31T19:45:42.688Z,18.25
2022-08-31T19:47:46.815Z,18.16
2022-08-31T19:49:50.625Z,18.04
2022-08-31T19:51:56.789Z,17.93
2022-08-31T19:54:00.951Z,17.84
2022-08-31T19:56:04.377Z,17.77
2022-08-31T19:58:12.161Z,17.71
2022-08-31T20:00:16.545Z,17.66
2022-08-31T20:02:18.496Z,17.61
2022-08-31T20:04:22.223Z,17.53
2022-08-31T20:06:28.677Z,17.42
2022-08-31T20:08:30.326Z,17.31
2022-08-31T20:10:57.189Z,17.26
2022-08-31T20:12:58.864Z,17.20
2022-08-31T20:15:00.622Z,17.15
2022-08-31T20:17:02.628Z,17.08
2022-08-31T20:19:05.789Z,17.03
2022-08-31T20:21:32.579Z,16.97
2022-08-31T20:23:35.192Z,16.89
2022-08-31T20:25:38.633Z,16.84
2022-08-31T20:27:41.918Z,16.79
2022-08-31T20:29:43.617Z,16.72
2022-08-31T20:32:17.619Z,16.66
2022-08-31T20:34:23.197Z,16.60
2022-08-31T20:36:30.188Z,16.51
2022-08-31T20:38:35.985Z,16.42
2022-08-31T20:40:38.776Z,16.34
2022-08-31T20:42:42.565Z,16.27
2022-08-31T20:44:48.819Z,16.25
2022-08-31T20:47:18.994Z,16.22
2022-08-31T20:49:23.438Z,16.16
2022-08-31T20:51:25.230Z,16.11
2022-08-31T20:53:43.202Z,16.07
2022-08-31T20:55:46.811Z,16.01
2022-08-31T20:57:49.391Z,15.99
2022-08-31T20:59:51.818Z,16.01
2022-08-31T21:01:59.427Z,16.05
2022-08-31T21:04:01.498Z,16.04
2022-08-31T21:06:08.282Z,16.03
2022-08-31T21:08:11.505Z,16.03
2022-08-31T21:10:26.125Z,16.01
2022-08-31T21:12:39.106Z,15.99
2022-08-31T21:15:03.540Z,15.96
2022-08-31T21:17:06.303Z,15.88
2022-08-31T21:19:14.418Z,15.84
2022-08-31T21:21:17.593Z,15.81
2022-08-31T21:23:19.534Z,15.79
2022-08-31T21:25:21.461Z,15.75
2022-08-31T21:27:27.245Z,15.72
2022-08-31T21:29:29.382Z,15.73
2022-08-31T21:31:31.142Z,15.76
2022-08-31T21:33:43.989Z,15.76
2022-08-31T21:36:05.878Z,15.77
2022-08-31T21:38:13.047Z,15.73
2022-08-31T21:40:15.079Z,15.72
2022-08-31T21:42:17.185Z,15.69
2022-08-31T21:44:20.922Z,15.65
2022-08-31T21:46:25.260Z,15.63
2022-08-31T21:48:29.332Z,15.59
2022-08-31T21:50:30.974Z,15.58
2022-08-31T21:52:32.643Z,15.60
2022-08-31T21:54:34.599Z,15.63
2022-08-31T21:56:45.318Z,15.66
2022-08-31T21:58:47.715Z,15.66
2022-08-31T22:00:50.154Z,15.63
2022-08-31T22:02:52.020Z,15.63
2022-08-31T22:04:53.656Z,15.63
2022-08-31T22:06:56.029Z,15.61
2022-08-31T22:09:18.931Z,15.59
2022-08-31T22:11:23.944Z,15.56
2022-08-31T22:13:26.047Z,15.55
2022-08-31T22:15:29.981Z,15.55
2022-08-31T22:17:55.715Z,15.57
2022-08-31T22:19:54.076Z,15.58
2022-08-31T22:21:59.108Z,15.58
2022-08-31T22:24:06.916Z,15.56
2022-08-31T22:26:09.607Z,15.55
2022-08-31T22:28:12.535Z,15.53
2022-08-31T22:30:14.411Z,15.52
2022-08-31T22:32:23.282Z,15.51
2022-08-31T22:34:25.528Z,15.51
2022-08-31T22:36:32.386Z,15.51
2022-08-31T22:38:34.902Z,15.52
2022-08-31T22:40:37.869Z,15.50
2022-08-31T22:42:39.874Z,15.47
2022-08-31T22:44:43.743Z,15.45
2022-08-31T22:46:48.486Z,15.42
2022-08-31T22:48:50.252Z,15.41
2022-08-31T22:50:52.080Z,15.40
2022-08-31T22:52:53.734Z,15.40
2022-08-31T22:54:57.519Z,15.41
2022-08-31T22:56:59.184Z,15.42
2022-08-31T22:59:04.176Z,15.39
2022-08-31T23:01:16.415Z,15.36
2022-08-31T23:03:18.085Z,15.33
2022-08-31T23:05:20.670Z,15.29
2022-08-31T23:07:22.383Z,15.24
2022-08-31T23:09:27.831Z,15.19
2022-08-31T23:11:29.873Z,15.18
2022-08-31T23:13:51.556Z,15.17
2022-08-31T23:16:14.465Z,15.16
2022-08-31T23:18:22.955Z,15.15
2022-08-31T23:20:24.705Z,15.14
2022-08-31T23:22:26.423Z,15.13
2022-08-31T23:24:31.555Z,15.11
2022-08-31T23:26:33.218Z,15.11
2022-08-31T23:28:36.563Z,15.10
2022-08-31T23:30:38.357Z,15.08
2022-08-31T23:32:41.337Z,15.06
2022-08-31T23:34:43.069Z,15.06
2022-08-31T23:36:55.618Z,15.04
2022-08-31T23:38:59.132Z,15.03
2022-08-31T23:41:00.817Z,15.01
2022-08-31T23:43:03.059Z,15.00
2022-08-31T23:45:16.239Z,15.00
2022-08-31T23:47:21.415Z,15.00
2022-08-31T23:49:23.579Z,15.01
2022-08-31T23:51:25.664Z,15.03
2022-08-31T23:53:28.248Z,15.05
2022-08-31T23:55:31.134Z,15.04
2022-08-31T23:57:35.672Z,15.03
2022-08-31T23:59:39.683Z,15.00
